createdAt,value
2018-03-17T00:00:25.499Z,0
2018-03-17T00:01:06.020Z,0
2018-03-17T00:01:46.538Z,0
2018-03-17T00:02:27.053Z,0
2018-03-17T00:03:07.571Z,0
2018-03-17T00:03:48.115Z,0
2018-03-17T00:04:28.616Z,0
2018-03-17T00:05:09.124Z,0
2018-03-17T00:05:49.655Z,0
2018-03-17T00:06:30.208Z,0
2018-03-17T00:07:10.706Z,0
2018-03-17T00:07:51.181Z,0
2018-03-17T00:08:31.708Z,0
2018-03-17T00:09:12.218Z,0
2018-03-17T00:09:52.733Z,0
2018-03-17T00:10:33.254Z,0
2018-03-17T00:11:13.769Z,0
2018-03-17T00:11:54.316Z,0
2018-03-17T00:12:34.824Z,0
2018-03-17T00:13:15.345Z,0
2018-03-17T00:13:55.862Z,0
2018-03-17T00:14:36.381Z,0
2018-03-17T00:15:16.905Z,0
2018-03-17T00:15:57.444Z,0
2018-03-17T00:16:37.961Z,0
2018-03-17T00:17:18.466Z,0
2018-03-17T00:17:58.991Z,0
2018-03-17T00:18:39.510Z,0
2018-03-17T00:19:20.035Z,0
2018-03-17T00:20:00.554Z,0
2018-03-17T00:20:41.054Z,0
2018-03-17T00:21:21.585Z,0
2018-03-17T00:22:02.097Z,0
2018-03-17T00:22:42.616Z,0
2018-03-17T00:23:23.158Z,0
2018-03-17T00:24:03.668Z,0
2018-03-17T00:24:44.242Z,0
2018-03-17T00:25:24.711Z,0
2018-03-17T00:26:05.243Z,0
2018-03-17T00:26:45.758Z,0
2018-03-17T00:27:26.289Z,0
2018-03-17T00:28:06.807Z,0
2018-03-17T00:28:47.322Z,0
2018-03-17T00:29:27.838Z,0
2018-03-17T00:30:08.360Z,0
2018-03-17T00:30:48.877Z,0
2018-03-17T00:31:29.390Z,0
2018-03-17T00:32:09.886Z,0
2018-03-17T00:32:50.415Z,0
2018-03-17T00:33:31.670Z,0
2018-03-17T00:34:12.178Z,0
2018-03-17T00:34:52.729Z,0
2018-03-17T00:35:33.223Z,0
2018-03-17T00:36:13.774Z,0
2018-03-17T00:36:54.280Z,0
2018-03-17T00:37:34.789Z,0
2018-03-17T00:38:15.311Z,0
2018-03-17T00:38:55.828Z,0
2018-03-17T00:39:36.328Z,0
2018-03-17T00:40:16.863Z,0
2018-03-17T00:40:57.372Z,0
2018-03-17T00:41:37.890Z,0
2018-03-17T00:42:18.407Z,0
2018-03-17T00:42:58.915Z,0
2018-03-17T00:43:39.450Z,0
2018-03-17T00:44:19.967Z,0
2018-03-17T00:45:00.481Z,0
2018-03-17T00:45:40.989Z,0
2018-03-17T00:46:21.537Z,0
2018-03-17T00:47:02.051Z,0
2018-03-17T00:47:42.579Z,0
2018-03-17T00:48:23.103Z,0
2018-03-17T00:49:03.639Z,0
2018-03-17T00:49:44.152Z,0
2018-03-17T00:50:24.684Z,0
2018-03-17T00:51:05.196Z,0
2018-03-17T00:51:45.722Z,0
2018-03-17T00:52:26.232Z,0
2018-03-17T00:53:06.752Z,0
2018-03-17T00:53:47.267Z,0
2018-03-17T00:54:27.777Z,0
2018-03-17T00:55:08.291Z,0
2018-03-17T00:55:48.804Z,0
2018-03-17T00:56:29.317Z,0
2018-03-17T00:57:09.839Z,0
2018-03-17T00:57:50.361Z,0
2018-03-17T00:58:30.870Z,0
2018-03-17T00:59:11.390Z,0
2018-03-17T00:59:51.918Z,0
2018-03-17T01:00:32.438Z,0
2018-03-17T01:01:12.945Z,0
2018-03-17T01:01:53.463Z,0
2018-03-17T01:02:33.987Z,0
2018-03-17T01:03:14.481Z,0
2018-03-17T01:03:54.984Z,0
2018-03-17T01:04:35.525Z,0
2018-03-17T01:05:16.036Z,0
2018-03-17T01:05:56.561Z,0
2018-03-17T01:06:37.091Z,0
2018-03-17T01:07:17.602Z,0
2018-03-17T01:07:58.123Z,0
2018-03-17T01:08:38.653Z,0
2018-03-17T01:09:19.156Z,0
2018-03-17T01:09:59.664Z,0
2018-03-17T01:10:40.182Z,0
2018-03-17T01:11:20.749Z,0
2018-03-17T01:12:01.263Z,0
2018-03-17T01:12:41.781Z,0
2018-03-17T01:13:22.327Z,0
2018-03-17T01:14:02.804Z,0
2018-03-17T01:14:43.343Z,0
2018-03-17T01:15:23.855Z,0
2018-03-17T01:16:04.373Z,0
2018-03-17T01:16:44.896Z,0
2018-03-17T01:17:25.399Z,0
2018-03-17T01:18:05.920Z,0
2018-03-17T01:18:46.438Z,0
2018-03-17T01:19:26.960Z,0
2018-03-17T01:20:07.490Z,0
2018-03-17T01:20:48.003Z,0
2018-03-17T01:21:28.508Z,0
2018-03-17T01:22:09.030Z,0
2018-03-17T01:22:49.537Z,0
2018-03-17T01:23:30.063Z,0
2018-03-17T01:24:10.575Z,0
2018-03-17T01:24:51.086Z,0
2018-03-17T01:25:31.595Z,0
2018-03-17T01:26:12.116Z,0
2018-03-17T01:26:52.626Z,0
2018-03-17T01:27:33.148Z,0
2018-03-17T01:28:13.653Z,0
2018-03-17T01:28:54.165Z,0
2018-03-17T01:29:34.683Z,0
2018-03-17T01:30:15.193Z,0
2018-03-17T01:30:55.709Z,0
2018-03-17T01:31:36.223Z,0
2018-03-17T01:32:16.783Z,0
2018-03-17T01:32:57.293Z,0
2018-03-17T01:33:37.801Z,0
2018-03-17T01:34:18.310Z,0
2018-03-17T01:34:58.809Z,0
2018-03-17T01:35:39.340Z,0
2018-03-17T01:36:19.852Z,0
2018-03-17T01:37:00.388Z,0
2018-03-17T01:37:40.909Z,0
2018-03-17T01:38:21.412Z,0
2018-03-17T01:39:01.926Z,0
2018-03-17T01:39:42.442Z,0
2018-03-17T01:40:22.961Z,0
2018-03-17T01:41:03.482Z,0
2018-03-17T01:41:44.014Z,0
2018-03-17T01:42:24.536Z,0
2018-03-17T01:43:05.031Z,0
2018-03-17T01:43:45.561Z,0
2018-03-17T01:44:26.086Z,0
2018-03-17T01:45:06.587Z,0
2018-03-17T01:45:47.097Z,0
2018-03-17T01:46:27.619Z,0
2018-03-17T01:47:08.128Z,0
2018-03-17T01:47:48.653Z,0
2018-03-17T01:48:29.165Z,0
2018-03-17T01:49:09.679Z,0
2018-03-17T01:49:50.189Z,0
2018-03-17T01:50:30.700Z,0
2018-03-17T01:51:11.241Z,0
2018-03-17T01:51:51.776Z,0
2018-03-17T01:52:32.290Z,0
2018-03-17T01:53:12.797Z,0
2018-03-17T01:53:53.410Z,0
2018-03-17T01:54:33.832Z,0
2018-03-17T01:55:14.362Z,0
2018-03-17T01:55:54.881Z,0
2018-03-17T01:56:35.432Z,0
2018-03-17T01:57:15.952Z,0
2018-03-17T01:57:56.464Z,0
2018-03-17T01:58:36.976Z,0
2018-03-17T01:59:17.493Z,0
2018-03-17T01:59:58.010Z,0
2018-03-17T02:00:38.527Z,0
2018-03-17T02:01:19.028Z,0
2018-03-17T02:01:59.546Z,0
2018-03-17T02:02:40.058Z,0
2018-03-17T02:03:20.579Z,0
2018-03-17T02:04:01.087Z,0
2018-03-17T02:04:41.609Z,0
2018-03-17T02:05:22.121Z,0
2018-03-17T02:06:02.646Z,0
2018-03-17T02:06:43.166Z,0
2018-03-17T02:07:23.690Z,0
2018-03-17T02:08:04.209Z,0
2018-03-17T02:08:44.727Z,0
2018-03-17T02:09:25.238Z,0
2018-03-17T02:10:05.735Z,0
2018-03-17T02:10:46.250Z,0
2018-03-17T02:11:26.771Z,0
2018-03-17T02:12:07.283Z,0
2018-03-17T02:12:47.788Z,0
2018-03-17T02:13:28.316Z,0
2018-03-17T02:14:08.835Z,0
2018-03-17T02:14:49.352Z,0
2018-03-17T02:15:29.869Z,0
2018-03-17T02:16:10.389Z,0
2018-03-17T02:16:50.950Z,0
2018-03-17T02:17:31.468Z,0
2018-03-17T02:18:12.011Z,0
2018-03-17T02:18:52.562Z,0
2018-03-17T02:19:33.079Z,0
2018-03-17T02:20:13.584Z,0
2018-03-17T02:20:54.114Z,0
2018-03-17T02:21:34.622Z,0
2018-03-17T02:22:15.185Z,0
2018-03-17T02:22:55.654Z,0
2018-03-17T02:23:36.169Z,0
2018-03-17T02:24:16.698Z,0
2018-03-17T02:24:57.204Z,0
2018-03-17T02:25:37.730Z,0
2018-03-17T02:26:18.246Z,0
2018-03-17T02:26:58.762Z,0
2018-03-17T02:27:39.268Z,0
2018-03-17T02:28:19.797Z,0
2018-03-17T02:29:00.318Z,0
2018-03-17T02:29:40.865Z,0
2018-03-17T02:30:21.376Z,0
2018-03-17T02:31:01.916Z,0
2018-03-17T02:31:42.436Z,0
2018-03-17T02:32:22.967Z,0
2018-03-17T02:33:03.486Z,0
2018-03-17T02:33:44.030Z,0
2018-03-17T02:34:24.515Z,0
2018-03-17T02:35:05.029Z,0
2018-03-17T02:35:45.566Z,0
2018-03-17T02:36:26.071Z,0
2018-03-17T02:37:06.603Z,0
2018-03-17T02:37:47.158Z,0
2018-03-17T02:38:27.673Z,0
2018-03-17T02:39:08.175Z,0
2018-03-17T02:39:48.690Z,0
2018-03-17T02:40:29.201Z,0
2018-03-17T02:41:09.732Z,0
2018-03-17T02:41:50.268Z,0
2018-03-17T02:42:30.769Z,0
2018-03-17T02:43:11.290Z,0
2018-03-17T02:43:51.819Z,0
2018-03-17T02:44:32.333Z,0
2018-03-17T02:45:12.875Z,0
2018-03-17T02:45:53.395Z,0
2018-03-17T02:46:33.928Z,0
2018-03-17T02:47:14.437Z,0
2018-03-17T02:47:54.947Z,0
2018-03-17T02:48:35.473Z,0
2018-03-17T02:49:15.998Z,0
2018-03-17T02:49:56.514Z,0
2018-03-17T02:50:37.075Z,0
2018-03-17T02:51:17.639Z,0
2018-03-17T02:51:58.127Z,0
2018-03-17T02:52:38.716Z,0
2018-03-17T02:53:19.158Z,0
2018-03-17T02:53:59.643Z,0
2018-03-17T02:54:40.142Z,0
2018-03-17T02:55:20.635Z,0
2018-03-17T02:56:01.168Z,0
2018-03-17T02:56:41.644Z,0
2018-03-17T02:57:22.174Z,0
2018-03-17T02:58:02.701Z,0
2018-03-17T02:58:43.220Z,0
2018-03-17T02:59:23.753Z,0
2018-03-17T03:00:04.254Z,0
2018-03-17T03:00:44.768Z,0
2018-03-17T03:01:25.274Z,0
2018-03-17T03:02:05.751Z,0
2018-03-17T03:02:46.292Z,0
2018-03-17T03:03:26.754Z,0
2018-03-17T03:04:07.245Z,0
2018-03-17T03:04:47.779Z,0
2018-03-17T03:05:28.224Z,0
2018-03-17T03:06:08.732Z,0
2018-03-17T03:06:49.253Z,0
2018-03-17T03:07:29.782Z,0
2018-03-17T03:08:10.296Z,0
2018-03-17T03:08:50.826Z,0
2018-03-17T03:09:31.330Z,0
2018-03-17T03:10:11.856Z,0
2018-03-17T03:10:52.361Z,0
2018-03-17T03:11:32.869Z,0
2018-03-17T03:12:13.424Z,0
2018-03-17T03:12:53.932Z,0
2018-03-17T03:13:34.443Z,0
2018-03-17T03:14:14.964Z,0
2018-03-17T03:14:55.481Z,0
2018-03-17T03:15:35.986Z,0
2018-03-17T03:16:16.503Z,0
2018-03-17T03:16:57.014Z,0
2018-03-17T03:17:37.531Z,0
2018-03-17T03:18:18.051Z,0
2018-03-17T03:18:58.564Z,0
2018-03-17T03:19:39.074Z,0
2018-03-17T03:20:19.585Z,0
2018-03-17T03:21:00.125Z,0
2018-03-17T03:21:40.632Z,0
2018-03-17T03:22:21.147Z,0
2018-03-17T03:23:01.670Z,0
2018-03-17T03:23:42.452Z,0
2018-03-17T03:24:23.382Z,0
2018-03-17T03:25:04.112Z,0
2018-03-17T03:25:44.628Z,0
2018-03-17T03:26:25.370Z,0
2018-03-17T03:27:06.275Z,0
2018-03-17T03:27:47.528Z,0
2018-03-17T03:28:27.976Z,0
2018-03-17T03:29:08.440Z,0
2018-03-17T03:29:48.948Z,0
2018-03-17T03:30:29.446Z,0
2018-03-17T03:31:09.965Z,0
2018-03-17T03:31:50.487Z,0
2018-03-17T03:32:31.000Z,0
2018-03-17T03:33:11.513Z,0
2018-03-17T03:33:52.053Z,0
2018-03-17T03:34:32.576Z,0
2018-03-17T03:35:13.117Z,0
2018-03-17T03:35:53.607Z,0
2018-03-17T03:36:34.114Z,0
2018-03-17T03:37:14.655Z,0
2018-03-17T03:37:55.177Z,0
2018-03-17T03:38:35.702Z,0
2018-03-17T03:39:16.294Z,0
2018-03-17T03:39:56.728Z,0
2018-03-17T03:40:37.242Z,0
2018-03-17T03:41:17.762Z,0
2018-03-17T03:41:58.272Z,0
2018-03-17T03:42:38.783Z,0
2018-03-17T03:43:19.285Z,0
2018-03-17T03:43:59.802Z,0
2018-03-17T03:44:40.353Z,0
2018-03-17T03:45:20.877Z,0
2018-03-17T03:46:01.401Z,0
2018-03-17T03:46:41.950Z,0
2018-03-17T03:47:22.429Z,0
2018-03-17T03:48:02.935Z,0
2018-03-17T03:48:43.447Z,0
2018-03-17T03:49:23.959Z,0
2018-03-17T03:50:04.472Z,0
2018-03-17T03:50:44.992Z,0
2018-03-17T03:51:25.518Z,0
2018-03-17T03:52:06.026Z,0
2018-03-17T03:52:46.544Z,0
2018-03-17T03:53:27.061Z,0
2018-03-17T03:54:07.564Z,0
2018-03-17T03:54:48.072Z,0
2018-03-17T03:55:28.615Z,0
2018-03-17T03:56:09.129Z,0
2018-03-17T03:56:49.646Z,0
2018-03-17T03:57:30.166Z,0
2018-03-17T03:58:10.656Z,0
2018-03-17T03:58:51.193Z,0
2018-03-17T03:59:31.731Z,0
2018-03-17T04:00:12.216Z,0
2018-03-17T04:00:52.735Z,0
2018-03-17T04:01:33.245Z,0
2018-03-17T04:02:13.753Z,0
2018-03-17T04:02:54.257Z,0
2018-03-17T04:03:34.802Z,0
2018-03-17T04:04:15.298Z,0
2018-03-17T04:04:55.800Z,0
2018-03-17T04:05:36.308Z,0
2018-03-17T04:06:16.831Z,0
2018-03-17T04:06:57.340Z,0
2018-03-17T04:07:37.865Z,0
2018-03-17T04:08:18.382Z,0
2018-03-17T04:08:58.888Z,0
2018-03-17T04:09:39.417Z,0
2018-03-17T04:10:19.932Z,0
2018-03-17T04:11:00.441Z,0
2018-03-17T04:11:40.958Z,0
2018-03-17T04:12:21.479Z,0
2018-03-17T04:13:02.004Z,0
2018-03-17T04:13:42.522Z,0
2018-03-17T04:14:23.023Z,0
2018-03-17T04:15:03.547Z,0
2018-03-17T04:15:44.056Z,0
2018-03-17T04:16:24.577Z,0
2018-03-17T04:17:05.125Z,0
2018-03-17T04:17:45.667Z,0
2018-03-17T04:18:26.178Z,0
2018-03-17T04:19:06.698Z,0
2018-03-17T04:19:47.219Z,0
2018-03-17T04:20:27.745Z,0
2018-03-17T04:21:08.265Z,0
2018-03-17T04:21:48.783Z,0
2018-03-17T04:22:29.314Z,0
2018-03-17T04:23:09.827Z,0
2018-03-17T04:23:50.362Z,0
2018-03-17T04:24:30.883Z,0
2018-03-17T04:25:11.398Z,0
2018-03-17T04:25:51.901Z,0
2018-03-17T04:26:32.406Z,0
2018-03-17T04:27:12.951Z,0
2018-03-17T04:27:53.477Z,0
2018-03-17T04:28:33.989Z,0
2018-03-17T04:29:14.504Z,0
2018-03-17T04:29:55.013Z,0
2018-03-17T04:30:35.536Z,0
2018-03-17T04:31:16.060Z,0
2018-03-17T04:31:56.592Z,0
2018-03-17T04:32:37.089Z,0
2018-03-17T04:33:17.606Z,0
2018-03-17T04:33:58.146Z,0
2018-03-17T04:34:38.670Z,0
2018-03-17T04:35:19.225Z,0
2018-03-17T04:35:59.718Z,0
2018-03-17T04:36:40.251Z,0
2018-03-17T04:37:20.752Z,0
2018-03-17T04:38:01.267Z,0
2018-03-17T04:38:41.774Z,0
2018-03-17T04:39:22.298Z,0
2018-03-17T04:40:02.824Z,0
2018-03-17T04:40:43.321Z,0
2018-03-17T04:41:23.834Z,0
2018-03-17T04:42:04.353Z,0
2018-03-17T04:42:44.876Z,0
2018-03-17T04:43:25.395Z,0
2018-03-17T04:44:05.915Z,0
2018-03-17T04:44:46.438Z,0
2018-03-17T04:45:26.945Z,0
2018-03-17T04:46:07.450Z,0
2018-03-17T04:46:47.956Z,0
2018-03-17T04:47:28.471Z,0
2018-03-17T04:48:09.002Z,0
2018-03-17T04:48:49.508Z,0
2018-03-17T04:49:30.022Z,0
2018-03-17T04:50:10.550Z,0
2018-03-17T04:50:51.071Z,0
2018-03-17T04:51:31.589Z,0
2018-03-17T04:52:12.107Z,0
2018-03-17T04:52:52.638Z,0
2018-03-17T04:53:33.162Z,0
2018-03-17T04:54:13.695Z,0
2018-03-17T04:54:54.202Z,0
2018-03-17T04:55:34.713Z,0
2018-03-17T04:56:15.228Z,0
2018-03-17T04:56:55.738Z,0
2018-03-17T04:57:36.258Z,0
2018-03-17T04:58:16.774Z,0
2018-03-17T04:58:57.365Z,0
2018-03-17T04:59:37.884Z,0
2018-03-17T05:00:18.396Z,0
2018-03-17T05:00:58.924Z,0
2018-03-17T05:01:39.435Z,0
2018-03-17T05:02:19.970Z,0
2018-03-17T05:03:00.482Z,0
2018-03-17T05:03:40.993Z,0
2018-03-17T05:04:21.509Z,0
2018-03-17T05:05:02.035Z,0
2018-03-17T05:05:42.545Z,0
2018-03-17T05:06:23.060Z,0
2018-03-17T05:07:03.578Z,0
2018-03-17T05:07:44.119Z,0
2018-03-17T05:08:24.630Z,0
2018-03-17T05:09:05.155Z,0
2018-03-17T05:09:45.672Z,0
2018-03-17T05:10:26.187Z,0
2018-03-17T05:11:06.689Z,0
2018-03-17T05:11:47.196Z,0
2018-03-17T05:12:27.713Z,0
2018-03-17T05:13:08.224Z,0
2018-03-17T05:13:48.751Z,0
2018-03-17T05:14:29.257Z,0
2018-03-17T05:15:09.771Z,0
2018-03-17T05:15:50.291Z,0
2018-03-17T05:16:30.809Z,0
2018-03-17T05:17:11.327Z,0
2018-03-17T05:17:51.839Z,0
2018-03-17T05:18:32.362Z,0
2018-03-17T05:19:12.879Z,0
2018-03-17T05:19:53.404Z,0
2018-03-17T05:20:33.933Z,4
2018-03-17T05:21:14.488Z,4
2018-03-17T05:21:54.917Z,4
2018-03-17T05:22:35.420Z,0
2018-03-17T05:23:15.955Z,0
2018-03-17T05:23:56.535Z,4
2018-03-17T05:24:37.015Z,4
2018-03-17T05:25:17.452Z,4
2018-03-17T05:25:57.914Z,4
2018-03-17T05:26:38.386Z,8
2018-03-17T05:27:18.903Z,4
2018-03-17T05:27:59.399Z,4
2018-03-17T05:28:39.883Z,4
2018-03-17T05:29:20.303Z,8
2018-03-17T05:30:00.807Z,8
2018-03-17T05:30:41.282Z,8
2018-03-17T05:31:21.835Z,8
2018-03-17T05:32:02.271Z,12
2018-03-17T05:32:42.796Z,8
2018-03-17T05:33:23.296Z,12
2018-03-17T05:34:03.812Z,12
2018-03-17T05:34:44.318Z,12
2018-03-17T05:35:24.823Z,12
2018-03-17T05:36:05.338Z,16
2018-03-17T05:36:45.841Z,16
2018-03-17T05:37:26.375Z,12
2018-03-17T05:38:06.911Z,16
2018-03-17T05:38:47.386Z,20
2018-03-17T05:39:27.898Z,16
2018-03-17T05:40:08.418Z,20
2018-03-17T05:40:48.929Z,20
2018-03-17T05:41:29.457Z,24
2018-03-17T05:42:09.965Z,32
2018-03-17T05:42:50.488Z,36
2018-03-17T05:43:31.004Z,36
2018-03-17T05:44:11.528Z,40
2018-03-17T05:44:52.043Z,44
2018-03-17T05:45:32.556Z,44
2018-03-17T05:46:13.083Z,48
2018-03-17T05:46:53.604Z,48
2018-03-17T05:47:34.127Z,48
2018-03-17T05:48:14.646Z,52
2018-03-17T05:48:55.159Z,56
2018-03-17T05:49:35.699Z,52
2018-03-17T05:50:16.212Z,56
2018-03-17T05:50:56.726Z,56
2018-03-17T05:51:37.262Z,60
2018-03-17T05:52:17.825Z,68
2018-03-17T05:52:58.291Z,64
2018-03-17T05:53:38.803Z,68
2018-03-17T05:54:19.315Z,72
2018-03-17T05:54:59.831Z,80
2018-03-17T05:55:40.371Z,84
2018-03-17T05:56:20.900Z,84
2018-03-17T05:57:01.426Z,88
2018-03-17T05:57:41.908Z,88
2018-03-17T05:58:22.422Z,88
2018-03-17T05:59:02.926Z,92
2018-03-17T05:59:43.382Z,92
2018-03-17T06:00:23.881Z,92
2018-03-17T06:01:04.486Z,96
2018-03-17T06:01:44.945Z,100
2018-03-17T06:02:25.668Z,104
2018-03-17T06:03:06.013Z,104
2018-03-17T06:03:46.500Z,104
2018-03-17T06:04:27.044Z,112
2018-03-17T06:05:07.498Z,116
2018-03-17T06:05:48.005Z,116
2018-03-17T06:06:28.524Z,116
2018-03-17T06:07:09.064Z,120
2018-03-17T06:07:49.548Z,124
2018-03-17T06:08:30.053Z,124
2018-03-17T06:09:10.514Z,128
2018-03-17T06:09:51.014Z,136
2018-03-17T06:10:31.549Z,140
2018-03-17T06:11:12.078Z,148
2018-03-17T06:11:52.710Z,148
2018-03-17T06:12:33.309Z,160
2018-03-17T06:13:13.722Z,164
2018-03-17T06:13:54.228Z,168
2018-03-17T06:14:34.722Z,172
2018-03-17T06:15:15.264Z,180
2018-03-17T06:15:55.767Z,184
2018-03-17T06:16:36.295Z,192
2018-03-17T06:17:16.678Z,200
2018-03-17T06:17:57.260Z,208
2018-03-17T06:18:37.759Z,216
2018-03-17T06:19:18.559Z,224
2018-03-17T06:20:00.396Z,228
2018-03-17T06:20:39.982Z,236
2018-03-17T06:21:20.512Z,240
2018-03-17T06:22:01.006Z,240
2018-03-17T06:22:41.566Z,248
2018-03-17T06:23:22.035Z,248
2018-03-17T06:24:03.286Z,252
2018-03-17T06:24:43.422Z,252
2018-03-17T06:25:23.994Z,260
2018-03-17T06:26:04.465Z,264
2018-03-17T06:26:44.926Z,260
2018-03-17T06:27:25.502Z,268
2018-03-17T06:28:06.016Z,280
2018-03-17T06:28:46.576Z,284
2018-03-17T06:29:27.070Z,296
2018-03-17T06:30:07.613Z,304
2018-03-17T06:30:48.203Z,312
2018-03-17T06:31:28.570Z,320
2018-03-17T06:32:09.058Z,324
2018-03-17T06:32:49.901Z,328
2018-03-17T06:33:30.362Z,328
2018-03-17T06:34:10.883Z,336
2018-03-17T06:34:51.388Z,340
2018-03-17T06:35:31.815Z,344
2018-03-17T06:36:12.329Z,356
2018-03-17T06:36:52.775Z,372
2018-03-17T06:37:33.252Z,380
2018-03-17T06:38:13.759Z,380
2018-03-17T06:38:54.218Z,388
2018-03-17T06:39:34.684Z,392
2018-03-17T06:40:15.266Z,392
2018-03-17T06:40:55.760Z,396
2018-03-17T06:41:36.216Z,404
2018-03-17T06:42:16.671Z,400
2018-03-17T06:42:57.121Z,396
2018-03-17T06:43:37.701Z,396
2018-03-17T06:44:18.386Z,408
2018-03-17T06:44:58.825Z,424
2018-03-17T06:45:39.314Z,440
2018-03-17T06:46:19.831Z,444
2018-03-17T06:47:00.297Z,444
2018-03-17T06:47:40.815Z,436
2018-03-17T06:48:21.233Z,444
2018-03-17T06:49:01.760Z,452
2018-03-17T06:49:42.183Z,448
2018-03-17T06:50:22.730Z,456
2018-03-17T06:51:03.245Z,452
2018-03-17T06:51:43.730Z,440
2018-03-17T06:52:24.140Z,444
2018-03-17T06:53:05.112Z,436
2018-03-17T06:53:45.142Z,440
2018-03-17T06:54:25.676Z,468
2018-03-17T06:55:06.171Z,472
2018-03-17T06:55:46.719Z,484
2018-03-17T06:56:27.179Z,504
2018-03-17T06:57:07.631Z,520
2018-03-17T06:57:48.176Z,540
2018-03-17T06:58:28.792Z,540
2018-03-17T06:59:09.189Z,564
2018-03-17T06:59:49.686Z,564
2018-03-17T07:00:30.193Z,556
2018-03-17T07:01:10.630Z,568
2018-03-17T07:01:51.125Z,576
2018-03-17T07:02:31.636Z,596
2018-03-17T07:03:12.093Z,608
2018-03-17T07:03:52.602Z,608
2018-03-17T07:04:33.087Z,588
2018-03-17T07:05:13.591Z,604
2018-03-17T07:05:54.073Z,608
2018-03-17T07:06:34.527Z,620
2018-03-17T07:07:15.026Z,616
2018-03-17T07:07:55.527Z,600
2018-03-17T07:08:36.062Z,604
2018-03-17T07:09:16.499Z,612
2018-03-17T07:09:56.972Z,604
2018-03-17T07:10:37.481Z,604
2018-03-17T07:11:17.981Z,604
2018-03-17T07:11:58.500Z,596
2018-03-17T07:12:38.957Z,604
2018-03-17T07:13:19.448Z,612
2018-03-17T07:13:59.907Z,624
2018-03-17T07:14:40.436Z,628
2018-03-17T07:15:20.915Z,628
2018-03-17T07:16:01.410Z,636
2018-03-17T07:16:41.894Z,636
2018-03-17T07:17:22.355Z,640
2018-03-17T07:18:02.835Z,648
2018-03-17T07:18:43.305Z,620
2018-03-17T07:19:23.774Z,628
2018-03-17T07:20:04.271Z,640
2018-03-17T07:20:44.786Z,644
2018-03-17T07:21:25.286Z,632
2018-03-17T07:22:05.781Z,616
2018-03-17T07:22:46.281Z,616
2018-03-17T07:23:26.764Z,632
2018-03-17T07:24:07.240Z,624
2018-03-17T07:24:47.734Z,616
2018-03-17T07:25:28.178Z,624
2018-03-17T07:26:08.694Z,628
2018-03-17T07:26:49.153Z,640
2018-03-17T07:27:29.651Z,652
2018-03-17T07:28:10.149Z,652
2018-03-17T07:28:50.648Z,648
2018-03-17T07:29:31.140Z,656
2018-03-17T07:30:11.611Z,664
2018-03-17T07:30:52.154Z,680
2018-03-17T07:31:32.590Z,680
2018-03-17T07:32:13.072Z,696
2018-03-17T07:32:53.605Z,696
2018-03-17T07:33:34.066Z,708
2018-03-17T07:34:14.534Z,700
2018-03-17T07:34:55.094Z,724
2018-03-17T07:35:35.592Z,732
2018-03-17T07:36:16.091Z,732
2018-03-17T07:36:56.597Z,724
2018-03-17T07:37:37.051Z,736
2018-03-17T07:38:17.539Z,740
2018-03-17T07:38:58.071Z,744
2018-03-17T07:39:38.536Z,736
2018-03-17T07:40:19.061Z,732
2018-03-17T07:40:59.544Z,736
2018-03-17T07:41:40.049Z,744
2018-03-17T07:42:20.649Z,732
2018-03-17T07:43:01.034Z,748
2018-03-17T07:43:41.728Z,744
2018-03-17T07:44:22.201Z,748
2018-03-17T07:45:02.667Z,732
2018-03-17T07:45:43.192Z,756
2018-03-17T07:46:23.726Z,768
2018-03-17T07:47:04.122Z,776
2018-03-17T07:47:44.591Z,776
2018-03-17T07:48:25.100Z,792
2018-03-17T07:49:05.576Z,796
2018-03-17T07:49:46.061Z,800
2018-03-17T07:50:26.596Z,780
2018-03-17T07:51:07.128Z,784
2018-03-17T07:51:47.648Z,792
2018-03-17T07:52:28.134Z,784
2018-03-17T07:53:08.676Z,792
2018-03-17T07:53:49.155Z,788
2018-03-17T07:54:29.574Z,784
2018-03-17T07:55:10.133Z,796
2018-03-17T07:55:50.577Z,776
2018-03-17T07:56:31.105Z,772
2018-03-17T07:57:11.602Z,784
2018-03-17T07:57:52.121Z,788
2018-03-17T07:58:32.606Z,776
2018-03-17T07:59:13.192Z,760
2018-03-17T07:59:53.692Z,760
2018-03-17T08:00:34.106Z,760
2018-03-17T08:01:14.621Z,776
2018-03-17T08:01:55.118Z,784
2018-03-17T08:02:35.540Z,800
2018-03-17T08:03:16.014Z,796
2018-03-17T08:03:56.484Z,800
2018-03-17T08:04:37.031Z,816
2018-03-17T08:05:17.491Z,832
2018-03-17T08:05:57.987Z,836
2018-03-17T08:06:39.025Z,848
2018-03-17T08:07:19.656Z,864
2018-03-17T08:08:00.073Z,884
2018-03-17T08:08:40.545Z,900
2018-03-17T08:09:21.078Z,924
2018-03-17T08:10:01.527Z,952
2018-03-17T08:10:42.001Z,984
2018-03-17T08:11:22.567Z,1000
2018-03-17T08:12:03.066Z,1020
2018-03-17T08:12:43.695Z,1040
2018-03-17T08:13:24.217Z,1072
2018-03-17T08:14:04.692Z,1088
2018-03-17T08:14:45.259Z,1100
2018-03-17T08:15:25.902Z,1080
2018-03-17T08:16:06.441Z,1104
2018-03-17T08:16:46.925Z,1140
2018-03-17T08:17:27.520Z,1144
2018-03-17T08:18:08.072Z,1176
2018-03-17T08:18:48.555Z,1196
2018-03-17T08:19:29.132Z,1220
2018-03-17T08:20:09.603Z,1232
2018-03-17T08:20:50.051Z,1232
2018-03-17T08:21:30.610Z,1224
2018-03-17T08:22:11.103Z,1232
2018-03-17T08:22:51.694Z,1276
2018-03-17T08:23:32.193Z,1324
2018-03-17T08:24:12.717Z,1356
2018-03-17T08:24:53.195Z,1384
2018-03-17T08:25:33.720Z,1348
2018-03-17T08:26:14.294Z,1340
2018-03-17T08:26:54.828Z,1384
2018-03-17T08:27:35.401Z,1428
2018-03-17T08:28:16.123Z,1472
2018-03-17T08:28:56.589Z,1484
2018-03-17T08:29:37.112Z,1484
2018-03-17T08:30:17.589Z,1472
2018-03-17T08:30:58.146Z,1472
2018-03-17T08:31:38.640Z,1464
2018-03-17T08:32:19.185Z,1440
2018-03-17T08:32:59.707Z,1444
2018-03-17T08:33:40.170Z,1440
2018-03-17T08:34:20.710Z,1428
2018-03-17T08:35:01.275Z,1408
2018-03-17T08:35:41.807Z,1416
2018-03-17T08:36:22.340Z,1448
2018-03-17T08:37:02.804Z,1488
2018-03-17T08:37:43.300Z,1500
2018-03-17T08:38:23.779Z,1480
2018-03-17T08:39:04.294Z,1476
2018-03-17T08:39:44.800Z,1480
2018-03-17T08:40:25.316Z,1492
2018-03-17T08:41:05.826Z,1504
2018-03-17T08:41:46.398Z,1472
2018-03-17T08:42:26.834Z,1484
2018-03-17T08:43:07.342Z,1492
2018-03-17T08:43:47.856Z,1488
2018-03-17T08:44:28.362Z,1480
2018-03-17T08:45:08.862Z,1456
2018-03-17T08:45:49.380Z,1448
2018-03-17T08:46:29.907Z,1428
2018-03-17T08:47:10.392Z,1400
2018-03-17T08:47:50.950Z,1384
2018-03-17T08:48:31.413Z,1364
2018-03-17T08:49:11.932Z,1360
2018-03-17T08:49:52.428Z,1344
2018-03-17T08:50:32.952Z,1300
2018-03-17T08:51:13.485Z,1284
2018-03-17T08:51:54.002Z,1320
2018-03-17T08:52:34.509Z,1308
2018-03-17T08:53:15.033Z,1320
2018-03-17T08:53:55.524Z,1304
2018-03-17T08:54:36.044Z,1292
2018-03-17T08:55:16.733Z,1292
2018-03-17T08:55:57.035Z,1316
2018-03-17T08:56:37.519Z,1324
2018-03-17T08:57:18.125Z,1320
2018-03-17T08:57:58.713Z,1356
2018-03-17T08:58:39.300Z,1352
2018-03-17T08:59:19.829Z,1360
2018-03-17T09:00:00.313Z,1392
2018-03-17T09:00:40.883Z,1464
2018-03-17T09:01:21.341Z,1480
2018-03-17T09:02:01.841Z,1488
2018-03-17T09:02:42.350Z,1504
2018-03-17T09:03:22.867Z,1516
2018-03-17T09:04:03.538Z,1536
2018-03-17T09:04:43.997Z,1612
2018-03-17T09:05:25.147Z,1676
2018-03-17T09:06:04.993Z,1684
2018-03-17T09:06:45.530Z,1612
2018-03-17T09:07:25.997Z,1628
2018-03-17T09:08:06.511Z,1676
2018-03-17T09:08:47.010Z,1708
2018-03-17T09:09:27.521Z,1716
2018-03-17T09:10:08.022Z,1716
2018-03-17T09:10:48.586Z,1776
2018-03-17T09:11:29.081Z,1796
2018-03-17T09:12:09.584Z,1780
2018-03-17T09:12:50.126Z,1832
2018-03-17T09:13:30.610Z,1828
2018-03-17T09:14:11.068Z,1876
2018-03-17T09:14:51.544Z,1920
2018-03-17T09:15:32.055Z,1908
2018-03-17T09:16:12.555Z,1920
2018-03-17T09:16:53.051Z,2072
2018-03-17T09:17:33.564Z,2220
2018-03-17T09:18:14.049Z,2312
2018-03-17T09:18:54.574Z,2428
2018-03-17T09:19:35.095Z,2512
2018-03-17T09:20:15.612Z,2624
2018-03-17T09:20:56.117Z,2660
2018-03-17T09:21:36.616Z,2752
2018-03-17T09:22:17.140Z,2916
2018-03-17T09:22:57.705Z,2952
2018-03-17T09:23:38.261Z,2992
2018-03-17T09:24:18.913Z,3080
2018-03-17T09:24:59.372Z,3144
2018-03-17T09:25:39.881Z,3140
2018-03-17T09:26:20.372Z,3048
2018-03-17T09:27:00.875Z,2992
2018-03-17T09:27:41.410Z,2956
2018-03-17T09:28:21.910Z,2964
2018-03-17T09:29:02.409Z,2916
2018-03-17T09:29:42.937Z,2848
2018-03-17T09:30:23.511Z,2804
2018-03-17T09:31:04.029Z,2836
2018-03-17T09:31:44.575Z,2860
2018-03-17T09:32:25.105Z,2836
2018-03-17T09:33:05.628Z,2752
2018-03-17T09:33:46.134Z,2744
2018-03-17T09:34:26.634Z,2784
2018-03-17T09:35:07.114Z,2880
2018-03-17T09:35:47.614Z,2956
2018-03-17T09:36:28.136Z,3036
2018-03-17T09:37:08.606Z,2976
2018-03-17T09:37:49.105Z,2940
2018-03-17T09:38:29.608Z,3040